Time;durP1;ratioP1;P1;durP2;ratioP2;P2;SDS_P1;SDS_P2;PMS_P1;PMS_P2;Temp;Humidity;BMP_temperature;BMP_pressure;BME280_temperature;BME280_humidity;BME280_pressure;Samples;Min_cycle;Max_cycle;Signal;HPM_P1;HPM_P2
2022/04/11 00:01:27;;;;;;;;;10.00;8.00;;;;;9.49;52.78;101332.16;5068268;28;45334;-69
2022/04/11 00:03:52;;;;;;;;;7.00;7.00;;;;;9.38;53.16;101325.75;5074111;28;46072;-70
2022/04/11 00:06:17;;;;;;;;;8.67;7.67;;;;;9.40;52.19;101316.63;5067519;28;45361;-69
2022/04/11 00:08:43;;;;;;;;;8.00;8.00;;;;;9.44;52.31;101327.09;5072848;28;45499;-69
2022/04/11 00:11:08;;;;;;;;;9.33;8.00;;;;;9.36;52.40;101314.16;5070192;28;45262;-69
2022/04/11 00:13:34;;;;;;;;;10.00;8.00;;;;;9.41;51.84;101313.78;5072494;28;48216;-70
2022/04/11 00:15:59;;;;;;;;;9.00;8.00;;;;;9.44;51.74;101310.81;5068481;28;45326;-70
2022/04/11 00:18:25;;;;;;;;;9.00;8.33;;;;;9.43;51.79;101316.34;5075400;28;45322;-70
2022/04/11 00:20:50;;;;;;;;;8.33;7.33;;;;;9.41;52.00;101319.22;5071346;28;45256;-70
2022/04/11 00:23:16;;;;;;;;;7.00;6.00;;;;;9.36;53.02;101316.00;5076371;28;47061;-69
2022/04/11 00:25:42;;;;;;;;;7.00;7.00;;;;;9.32;52.81;101309.13;5066152;28;45216;-70
2022/04/11 00:28:08;;;;;;;;;7.00;7.00;;;;;9.32;51.77;101314.56;5078804;27;45255;-69
2022/04/11 00:30:33;;;;;;;;;7.33;7.33;;;;;9.31;52.63;101312.81;5085875;28;45386;-69
2022/04/11 00:32:58;;;;;;;;;10.00;8.00;;;;;9.24;53.25;101295.34;5068329;28;47241;-70
2022/04/11 00:35:24;;;;;;;;;6.33;6.33;;;;;9.26;52.51;101296.06;5072582;28;45413;-69
2022/04/11 00:37:49;;;;;;;;;3.67;3.67;;;;;9.24;52.58;101284.50;5072414;28;45491;-69
2022/04/11 00:40:14;;;;;;;;;9.33;9.00;;;;;9.22;52.92;101281.03;5083258;28;45285;-69
2022/04/11 00:42:40;;;;;;;;;9.33;6.33;;;;;9.22;53.25;101262.91;5070864;28;46559;-69
2022/04/11 00:45:07;;;;;;;;;9.00;6.67;;;;;9.23;52.03;101267.34;5081602;28;45423;-69
2022/04/11 00:47:32;;;;;;;;;7.00;7.00;;;;;9.22;52.71;101264.78;5070396;27;45317;-69
2022/04/11 00:50:05;;;;;;;;;5.00;4.33;;;;;9.17;52.84;101256.16;5080779;28;45529;-69
2022/04/11 00:52:35;;;;;;;;;5.67;5.67;;;;;9.15;53.20;101264.41;5084595;28;45491;-69
2022/04/11 00:55:02;;;;;;;;;6.33;6.33;;;;;9.07;52.57;101252.47;5077121;27;45396;-70
2022/04/11 00:57:28;;;;;;;;;6.33;6.33;;;;;9.06;52.75;101242.66;5064705;28;45228;-70
2022/04/11 00:59:54;;;;;;;;;5.67;5.67;;;;;9.10;53.21;101250.38;5073325;28;45272;-69
2022/04/11 01:02:20;;;;;;;;;4.00;4.00;;;;;9.09;52.76;101245.09;5068263;28;46225;-69
2022/04/11 01:04:45;;;;;;;;;6.33;6.33;;;;;9.01;53.51;101242.16;5072881;28;45319;-70
2022/04/11 01:07:10;;;;;;;;;8.00;8.00;;;;;8.98;54.25;101240.56;5066999;28;45653;-69
2022/04/11 01:09:36;;;;;;;;;9.67;7.67;;;;;8.95;53.06;101230.84;5073349;27;45410;-70
2022/04/11 01:12:02;;;;;;;;;5.67;5.67;;;;;8.99;53.30;101226.88;5068077;28;46906;-70
2022/04/11 01:14:28;;;;;;;;;8.67;4.67;;;;;8.93;53.51;101224.66;5080384;28;45399;-69
2022/04/11 01:16:53;;;;;;;;;5.33;3.33;;;;;8.93;53.40;101215.69;5064695;28;45420;-69
2022/04/11 01:19:20;;;;;;;;;5.67;5.67;;;;;8.90;53.89;101211.41;5077710;28;45436;-69
2022/04/11 01:21:48;;;;;;;;;8.00;7.00;;;;;8.90;53.44;101216.81;5061932;28;47291;-69
2022/04/11 01:24:18;;;;;;;;;8.00;4.00;;;;;8.94;53.05;101211.97;5080381;28;45330;-69
2022/04/11 01:26:45;;;;;;;;;12.33;7.00;;;;;8.89;53.99;101203.38;5071647;28;45396;-69
2022/04/11 01:29:11;;;;;;;;;7.67;7.67;;;;;8.86;53.04;101204.47;5079612;27;45310;-69
2022/04/11 01:31:37;;;;;;;;;5.33;5.33;;;;;8.84;53.08;101197.50;5062710;28;47279;-69
2022/04/11 01:34:02;;;;;;;;;4.67;4.67;;;;;8.79;52.93;101194.28;5077959;28;45637;-70
2022/04/11 01:36:28;;;;;;;;;10.33;6.67;;;;;8.81;52.88;101197.72;5080354;28;45360;-70
2022/04/11 01:38:53;;;;;;;;;4.67;4.67;;;;;8.81;53.20;101200.44;5077785;28;45436;-70
2022/04/11 01:41:20;;;;;;;;;8.00;4.67;;;;;8.77;52.42;101188.13;5064317;28;46288;-68
2022/04/11 01:43:45;;;;;;;;;6.00;4.00;;;;;8.72;53.07;101184.94;5076596;28;45601;-70
2022/04/11 01:46:10;;;;;;;;;7.00;5.33;;;;;8.67;53.27;101179.03;5071382;28;45563;-68
2022/04/11 01:48:36;;;;;;;;;4.00;4.00;;;;;8.65;53.40;101183.72;5075052;28;45522;-68
2022/04/11 01:51:01;;;;;;;;;8.50;8.25;;;;;8.58;53.24;101172.53;5071848;28;47915;-68
2022/04/11 01:53:26;;;;;;;;;4.33;4.00;;;;;8.57;53.82;101179.78;5081118;28;45376;-67
2022/04/11 01:55:52;;;;;;;;;5.67;4.00;;;;;8.56;53.73;101174.47;5071195;28;45385;-68
2022/04/11 01:58:17;;;;;;;;;4.33;4.00;;;;;8.55;53.69;101170.06;5073678;28;45458;-68
2022/04/11 02:00:43;;;;;;;;;4.00;3.33;;;;;8.54;53.68;101176.47;5069689;28;46235;-68
2022/04/11 02:03:09;;;;;;;;;7.00;4.67;;;;;8.51;54.38;101172.16;5071581;28;45471;-68
2022/04/11 02:05:35;;;;;;;;;6.00;3.33;;;;;8.45;54.45;101166.38;5068219;28;45401;-68
2022/04/11 02:08:03;;;;;;;;;7.00;7.00;;;;;8.45;53.80;101166.38;5070472;28;45584;-68
2022/04/11 02:10:28;;;;;;;;;4.00;4.00;;;;;8.43;54.27;101158.38;5067064;28;45412;-68
2022/04/11 02:12:54;;;;;;;;;4.67;4.67;;;;;8.32;55.05;101158.41;5069146;28;45463;-68
2022/04/11 02:15:20;;;;;;;;;2.33;2.33;;;;;8.33;54.71;101157.41;5066018;28;45359;-68
2022/04/11 02:17:50;;;;;;;;;6.67;4.00;;;;;8.32;53.66;101144.88;5068446;28;45348;-68
2022/04/11 02:20:16;;;;;;;;;4.00;4.00;;;;;8.39;53.91;101159.63;5073764;28;45675;-69
2022/04/11 02:22:49;;;;;;;;;4.00;3.00;;;;;8.40;52.99;101153.22;5069566;28;45223;-68
2022/04/11 02:25:15;;;;;;;;;3.00;3.00;;;;;8.37;53.34;101148.06;5082204;28;45368;-70
2022/04/11 02:27:42;;;;;;;;;3.00;3.00;;;;;8.30;53.57;101144.09;5082778;27;45282;-68
2022/04/11 02:30:08;;;;;;;;;4.00;4.00;;;;;8.26;54.16;101139.91;5072832;28;45411;-68
2022/04/11 02:32:34;;;;;;;;;6.67;3.00;;;;;8.28;53.77;101143.34;5076576;28;46053;-68
2022/04/11 02:34:59;;;;;;;;;7.67;6.00;;;;;8.25;53.71;101132.78;5073691;28;45381;-67
2022/04/11 02:37:24;;;;;;;;;7.00;3.00;;;;;8.29;52.86;101136.94;5067651;28;45531;-70
2022/04/11 02:39:50;;;;;;;;;3.00;3.00;;;;;8.26;53.11;101131.78;5073214;28;45386;-70
2022/04/11 02:42:25;;;;;;;;;2.00;2.00;;;;;8.24;53.75;101136.47;5065468;28;45548;-70
2022/04/11 02:44:51;;;;;;;;;5.00;5.00;;;;;8.22;53.54;101130.31;5068495;28;45391;-67
2022/04/11 02:47:17;;;;;;;;;2.33;1.67;;;;;8.22;53.47;101127.59;5067541;28;45546;-70
2022/04/11 02:49:43;;;;;;;;;6.33;6.33;;;;;8.16;53.99;101128.97;5078412;27;46389;-70
2022/04/11 02:52:09;;;;;;;;;3.33;3.33;;;;;8.15;54.38;101129.94;5067331;28;45306;-70
2022/04/11 02:54:36;;;;;;;;;4.67;4.00;;;;;8.12;54.92;101123.91;5077368;27;45417;-68
2022/04/11 02:57:01;;;;;;;;;4.00;3.67;;;;;8.07;55.76;101101.78;5065505;28;45276;-68
2022/04/11 02:59:26;;;;;;;;;6.00;6.00;;;;;8.09;54.24;101116.06;5081916;28;47058;-68
2022/04/11 03:01:52;;;;;;;;;6.33;4.00;;;;;8.11;54.20;101108.66;5065208;28;45485;-70
2022/04/11 03:04:17;;;;;;;;;5.67;5.67;;;;;8.05;53.88;101096.50;5072991;28;45392;-70
2022/04/11 03:06:42;;;;;;;;;4.00;3.00;;;;;8.05;53.88;101095.63;5065889;27;45218;-68
2022/04/11 03:09:08;;;;;;;;;4.00;4.00;;;;;8.06;53.81;101091.94;5075533;28;47545;-68
2022/04/11 03:11:34;;;;;;;;;5.33;5.33;;;;;8.01;53.83;101083.34;5065331;28;45417;-69
2022/04/11 03:14:00;;;;;;;;;8.00;8.00;;;;;8.02;54.74;101083.22;5077372;28;45298;-68
2022/04/11 03:16:25;;;;;;;;;11.00;6.33;;;;;7.98;54.65;101078.16;5065111;27;45361;-68
2022/04/11 03:18:51;;;;;;;;;6.67;6.67;;;;;7.93;55.55;101074.97;5073250;28;47077;-69
2022/04/11 03:21:16;;;;;;;;;7.33;6.33;;;;;7.87;54.34;101073.63;5063173;28;45407;-68
2022/04/11 03:23:42;;;;;;;;;6.33;6.33;;;;;7.93;54.79;101074.97;5075155;28;45584;-68
2022/04/11 03:26:07;;;;;;;;;6.00;6.00;;;;;7.89;55.18;101076.22;5063878;28;45367;-68
2022/04/11 03:28:32;;;;;;;;;7.00;7.00;;;;;7.84;56.16;101079.28;5074398;27;46275;-68
2022/04/11 03:30:59;;;;;;;;;7.67;6.33;;;;;7.78;54.83;101083.34;5064754;28;45457;-68
2022/04/11 03:33:24;;;;;;;;;6.67;6.00;;;;;7.77;55.90;101089.72;5071465;28;45394;-68
2022/04/11 03:35:50;;;;;;;;;8.67;7.00;;;;;7.72;54.88;101097.34;5075684;28;45362;-69
2022/04/11 03:38:16;;;;;;;;;5.33;4.00;;;;;7.75;55.64;101091.69;5071935;28;46138;-69
2022/04/11 03:40:41;;;;;;;;;8.00;8.00;;;;;7.68;55.56;101085.03;5074701;28;45428;-69
2022/04/11 03:43:07;;;;;;;;;11.00;7.00;;;;;7.72;54.87;101078.44;5075023;28;45374;-69
2022/04/11 03:45:32;;;;;;;;;7.00;6.67;;;;;7.71;55.95;101087.53;5076014;27;45484;-69
2022/04/11 03:47:57;;;;;;;;;7.00;7.00;;;;;7.63;55.84;101089.97;5076200;28;45411;-68
2022/04/11 03:50:23;;;;;;;;;6.67;6.67;;;;;7.69;55.08;101075.94;5074099;27;45385;-69
2022/04/11 03:52:49;;;;;;;;;7.00;7.00;;;;;7.70;55.41;101056.03;5076360;28;45444;-69
2022/04/11 03:55:14;;;;;;;;;7.33;7.33;;;;;7.71;55.39;101063.19;5074333;28;45454;-69
2022/04/11 03:57:40;;;;;;;;;8.67;8.00;;;;;7.70;55.77;101056.03;5078747;28;47232;-68
2022/04/11 04:00:05;;;;;;;;;7.00;7.00;;;;;7.68;55.21;101058.00;5073800;28;45251;-69
2022/04/11 04:02:31;;;;;;;;;4.67;4.67;;;;;7.69;55.26;101057.03;5069624;28;45422;-69
2022/04/11 04:04:56;;;;;;;;;10.75;10.75;;;;;7.63;55.31;101043.13;5072622;27;45291;-68
2022/04/11 04:07:22;;;;;;;;;8.00;8.00;;;;;7.64;56.23;101045.72;5068941;28;46224;-69
2022/04/11 04:09:47;;;;;;;;;6.00;6.00;;;;;7.67;54.81;101042.75;5081142;28;45375;-69
2022/04/11 04:12:13;;;;;;;;;10.50;7.75;;;;;7.61;55.62;101035.13;5067631;28;46114;-69
2022/04/11 04:14:39;;;;;;;;;8.00;6.33;;;;;7.63;54.72;101038.59;5079801;28;45290;-69
2022/04/11 04:17:04;;;;;;;;;9.00;7.33;;;;;7.50;56.15;101021.63;5066289;28;46250;-69
2022/04/11 04:19:30;;;;;;;;;9.00;9.00;;;;;7.52;56.77;101035.88;5079214;28;45362;-68
2022/04/11 04:21:55;;;;;;;;;9.00;7.33;;;;;7.48;56.05;101034.41;5065348;28;45363;-69
2022/04/11 04:24:22;;;;;;;;;10.67;9.00;;;;;7.49;56.71;101032.56;5069811;28;45228;-69
2022/04/11 04:26:48;;;;;;;;;7.67;6.00;;;;;7.44;56.47;101032.94;5065373;28;46509;-69
2022/04/11 04:29:16;;;;;;;;;10.33;10.33;;;;;7.39;57.36;101040.53;5081085;27;45164;-69
2022/04/11 04:31:42;;;;;;;;;9.33;8.00;;;;;7.32;56.97;101032.03;5074849;28;45433;-69
2022/04/11 04:34:08;;;;;;;;;12.00;9.75;;;;;7.36;57.62;101025.44;5078695;28;45445;-69
2022/04/11 04:36:33;;;;;;;;;12.00;11.33;;;;;7.30;58.21;101009.69;5064919;28;46765;-69
2022/04/11 04:38:59;;;;;;;;;13.00;11.25;;;;;7.34;57.25;101010.31;5076074;28;45508;-68
2022/04/11 04:41:24;;;;;;;;;8.25;8.25;;;;;7.32;57.10;101006.84;5075035;28;45385;-69
2022/04/11 04:43:49;;;;;;;;;8.00;8.00;;;;;7.35;56.49;101009.31;5076160;28;45422;-70
2022/04/11 04:46:14;;;;;;;;;8.75;8.75;;;;;7.27;56.90;100999.13;5064725;28;45344;-70
2022/04/11 04:48:40;;;;;;;;;11.67;9.00;;;;;7.27;57.25;101011.78;5076148;28;45930;-70
2022/04/11 04:51:08;;;;;;;;;11.00;7.67;;;;;7.19;58.11;101020.47;5074214;28;45221;-67
2022/04/11 04:53:33;;;;;;;;;12.33;9.00;;;;;7.16;58.25;101023.41;5075947;28;45320;-68
2022/04/11 04:55:58;;;;;;;;;8.33;6.00;;;;;7.17;57.85;101035.06;5072396;28;45413;-69
2022/04/11 04:58:24;;;;;;;;;11.00;8.67;;;;;7.11;58.61;101035.56;5073626;28;45301;-69
2022/04/11 05:00:49;;;;;;;;;7.00;7.00;;;;;7.08;57.79;101033.13;5070468;28;45309;-69
2022/04/11 05:03:14;;;;;;;;;11.00;7.00;;;;;7.11;57.44;101038.25;5072580;28;45306;-70
2022/04/11 05:05:40;;;;;;;;;7.00;7.00;;;;;7.15;57.61;101039.75;5068642;28;45960;-69
2022/04/11 05:08:06;;;;;;;;;12.00;10.33;;;;;7.16;57.40;101055.00;5070278;28;45350;-69
2022/04/11 05:10:31;;;;;;;;;11.00;8.50;;;;;7.12;57.90;101046.25;5064775;28;45267;-69
2022/04/11 05:12:57;;;;;;;;;10.33;7.00;;;;;7.07;57.46;101037.66;5076120;28;45359;-68
2022/04/11 05:15:23;;;;;;;;;9.33;7.00;;;;;7.17;57.22;101040.47;5065777;28;46416;-69
2022/04/11 05:17:48;;;;;;;;;3.67;3.67;;;;;7.18;57.54;101036.81;5066870;28;45414;-68
2022/04/11 05:20:14;;;;;;;;;9.00;9.00;;;;;7.20;57.37;101035.72;5072459;28;45329;-69
2022/04/11 05:22:39;;;;;;;;;8.33;7.67;;;;;7.26;57.20;101031.66;5069095;28;45533;-69
2022/04/11 05:25:06;;;;;;;;;12.75;8.75;;;;;7.23;57.49;101038.16;5074747;28;46259;-69
2022/04/11 05:27:31;;;;;;;;;10.75;8.50;;;;;7.28;57.81;101037.81;5065786;27;45656;-69
2022/04/11 05:29:57;;;;;;;;;3.00;3.00;;;;;7.26;56.70;101029.81;5074813;27;45171;-69
2022/04/11 05:32:22;;;;;;;;;10.25;10.00;;;;;7.28;56.92;101021.59;5066275;28;45240;-69
2022/04/11 05:34:47;;;;;;;;;14.00;9.00;;;;;7.26;57.31;101023.56;5074294;28;45214;-69
2022/04/11 05:37:13;;;;;;;;;12.33;12.33;;;;;7.20;57.77;101015.94;5064213;28;45224;-69
2022/04/11 05:39:39;;;;;;;;;13.25;11.50;;;;;7.27;57.81;101014.47;5072736;28;46448;-69
2022/04/11 05:42:06;;;;;;;;;13.50;12.25;;;;;7.31;58.18;101016.78;5068182;28;45561;-69
2022/04/11 05:44:32;;;;;;;;;17.75;15.75;;;;;7.34;57.57;101010.31;5073480;28;46313;-69
2022/04/11 05:46:57;;;;;;;;;11.25;8.50;;;;;7.41;57.58;101011.53;5062468;28;45381;-69
2022/04/11 05:49:23;;;;;;;;;9.00;9.00;;;;;7.52;56.71;101008.84;5072999;28;45517;-69
2022/04/11 05:51:49;;;;;;;;;12.00;12.00;;;;;7.59;56.77;101018.19;5063745;28;45287;-70
2022/04/11 05:54:15;;;;;;;;;13.25;10.75;;;;;7.68;56.66;101030.97;5095832;27;47270;-69
2022/04/11 05:56:41;;;;;;;;;11.25;10.75;;;;;7.81;55.70;101020.91;5063235;28;45386;-69
2022/04/11 05:59:08;;;;;;;;;11.75;9.25;;;;;7.92;54.74;101022.72;5072508;28;45401;-71
2022/04/11 06:01:34;;;;;;;;;14.25;11.00;;;;;8.05;55.46;101018.00;5067712;27;45393;-71
2022/04/11 06:03:59;;;;;;;;;10.75;10.75;;;;;8.10;54.63;101025.78;5070611;28;45407;-71
2022/04/11 06:06:24;;;;;;;;;8.67;7.67;;;;;8.17;54.06;101021.56;5067727;28;45379;-71
2022/04/11 06:08:51;;;;;;;;;8.67;7.33;;;;;8.25;54.77;101026.34;5076844;28;45415;-71
2022/04/11 06:11:16;;;;;;;;;9.33;8.33;;;;;8.31;53.60;101015.91;5066660;28;45336;-70
2022/04/11 06:13:43;;;;;;;;;9.33;7.33;;;;;8.38;53.21;101017.13;5069009;28;45996;-70
2022/04/11 06:16:09;;;;;;;;;8.00;8.00;;;;;8.51;53.59;101025.06;5065269;28;45310;-70
2022/04/11 06:18:34;;;;;;;;;10.33;10.33;;;;;8.70;52.77;101027.06;5072331;28;45443;-70
2022/04/11 06:21:00;;;;;;;;;10.00;8.67;;;;;8.88;52.96;101022.81;5067382;27;45303;-71
2022/04/11 06:23:25;;;;;;;;;9.00;8.00;;;;;9.13;52.15;101014.28;5072435;28;46093;-71
2022/04/11 06:25:51;;;;;;;;;10.00;7.33;;;;;9.13;51.98;101014.28;5065489;28;45372;-71
2022/04/11 06:28:17;;;;;;;;;9.00;7.67;;;;;9.12;51.78;101030.72;5071720;27;45522;-71
2022/04/11 06:30:42;;;;;;;;;10.00;7.33;;;;;9.02;51.21;101024.34;5066716;28;45547;-70
2022/04/11 06:33:07;;;;;;;;;2.33;1.00;;;;;8.98;50.37;101023.78;5067967;28;47160;-70
2022/04/11 06:35:33;;;;;;;;;6.67;6.33;;;;;8.98;50.58;101024.59;5077926;27;45220;-71
2022/04/11 06:37:58;;;;;;;;;7.00;7.00;;;;;9.08;50.65;101021.97;5064844;28;46133;-72
2022/04/11 06:40:23;;;;;;;;;7.33;7.33;;;;;9.10;49.92;101002.88;5076928;28;45452;-72
2022/04/11 06:42:49;;;;;;;;;7.33;6.33;;;;;9.29;49.73;101001.13;5065599;28;48318;-70
2022/04/11 06:45:14;;;;;;;;;7.00;5.33;;;;;9.50;49.45;101002.94;5065399;28;45717;-71
2022/04/11 06:47:40;;;;;;;;;5.33;5.33;;;;;9.54;49.03;100991.69;5079770;28;45639;-71
2022/04/11 06:50:06;;;;;;;;;5.33;5.33;;;;;9.59;48.86;100992.13;5073562;28;45564;-71
2022/04/11 06:52:31;;;;;;;;;9.00;8.00;;;;;9.66;48.69;100989.75;5064450;28;45424;-71
2022/04/11 06:54:56;;;;;;;;;9.33;8.00;;;;;9.78;48.52;100975.09;5068703;28;45453;-71
2022/04/11 06:57:23;;;;;;;;;7.67;7.67;;;;;9.87;48.61;100979.66;5062824;28;45796;-71
2022/04/11 06:59:49;;;;;;;;;9.67;7.67;;;;;9.95;48.04;100982.56;5070782;27;45305;-71
2022/04/11 07:02:14;;;;;;;;;9.00;8.00;;;;;10.05;47.39;100983.44;5061826;28;45543;-72
2022/04/11 07:04:40;;;;;;;;;12.00;6.67;;;;;10.21;47.49;100982.09;5077753;28;45277;-72
2022/04/11 07:07:05;;;;;;;;;15.33;11.00;;;;;10.29;47.12;100985.81;5060802;28;45514;-72
2022/04/11 07:09:31;;;;;;;;;10.33;8.00;;;;;10.38;46.63;100990.38;5068718;28;45465;-71
2022/04/11 07:11:56;;;;;;;;;11.00;7.00;;;;;10.43;46.28;100988.13;5060504;28;46109;-72
2022/04/11 07:14:22;;;;;;;;;9.00;8.67;;;;;10.43;46.47;100974.53;5067986;28;45361;-71
2022/04/11 07:16:48;;;;;;;;;5.67;5.67;;;;;10.42;46.78;100966.53;5060069;28;45158;-71
2022/04/11 07:19:14;;;;;;;;;3.33;1.67;;;;;10.51;46.68;100955.69;5073119;28;45408;-71
2022/04/11 07:21:39;;;;;;;;;10.33;9.00;;;;;10.53;46.36;100958.22;5059290;28;47566;-70
2022/04/11 07:24:05;;;;;;;;;6.33;6.33;;;;;10.48;46.42;100952.38;5075993;28;45324;-71
2022/04/11 07:26:30;;;;;;;;;5.00;5.00;;;;;10.56;46.17;100944.38;5060615;28;45303;-70
2022/04/11 07:28:56;;;;;;;;;8.00;8.00;;;;;10.54;46.05;100941.78;5076779;27;45359;-70
2022/04/11 07:31:21;;;;;;;;;9.75;7.75;;;;;10.69;46.14;100950.38;5022318;28;1257343;-72
2022/04/11 07:33:49;;;;;;;;;7.33;7.33;;;;;10.78;46.28;100938.63;5077211;28;46049;-72
2022/04/11 07:36:14;;;;;;;;;12.67;10.33;;;;;10.81;46.22;100943.75;5073159;28;45407;-71
2022/04/11 07:38:39;;;;;;;;;6.00;6.00;;;;;11.01;45.69;100932.88;5073870;28;45501;-70
2022/04/11 07:41:05;;;;;;;;;7.33;4.33;;;;;10.95;44.75;100944.34;5061764;28;46532;-72
2022/04/11 07:43:30;;;;;;;;;7.00;7.00;;;;;10.93;45.23;100936.31;5072288;28;45580;-70
2022/04/11 07:45:56;;;;;;;;;10.67;6.33;;;;;10.96;45.00;100933.28;5070390;28;45278;-72
2022/04/11 07:48:21;;;;;;;;;9.67;8.67;;;;;11.11;45.26;100939.13;5073829;28;45172;-70
2022/04/11 07:50:47;;;;;;;;;7.33;6.00;;;;;11.27;44.92;100944.81;5069342;27;45319;-70
2022/04/11 07:53:12;;;;;;;;;7.33;7.00;;;;;11.42;44.60;100943.31;5070951;28;45543;-73
2022/04/11 07:55:37;;;;;;;;;5.67;4.00;;;;;11.52;44.46;100937.84;5068600;28;45232;-71
2022/04/11 07:58:03;;;;;;;;;10.33;9.33;;;;;11.67;44.27;100930.91;5063791;28;45229;-71
2022/04/11 08:00:28;;;;;;;;;5.33;5.33;;;;;11.79;44.55;100934.31;5062147;28;46262;-71
2022/04/11 08:02:55;;;;;;;;;6.00;6.00;;;;;11.96;44.62;100930.78;5068800;28;45382;-71
2022/04/11 08:05:21;;;;;;;;;15.00;10.00;;;;;12.24;44.02;100921.53;5074187;28;45460;-71
2022/04/11 08:07:48;;;;;;;;;6.67;5.00;;;;;12.53;43.16;100913.13;5067374;28;45635;-71
2022/04/11 08:10:14;;;;;;;;;5.67;5.00;;;;;12.73;42.96;100919.25;5061278;28;47237;-71
2022/04/11 08:12:41;;;;;;;;;8.67;8.67;;;;;12.84;42.17;100908.09;5070396;28;45510;-71
2022/04/11 08:15:07;;;;;;;;;9.00;7.00;;;;;13.06;42.14;100906.72;5061921;28;45449;-72
2022/04/11 08:17:33;;;;;;;;;8.67;7.00;;;;;13.08;41.15;100902.78;5064052;28;45418;-71
2022/04/11 08:19:58;;;;;;;;;5.00;5.00;;;;;13.18;41.35;100892.69;5074421;27;45580;-71
2022/04/11 08:22:23;;;;;;;;;6.67;5.00;;;;;13.18;41.80;100903.59;5064191;28;45780;-71
2022/04/11 08:24:49;;;;;;;;;5.33;5.33;;;;;13.49;41.21;100900.34;5074113;28;45394;-71
2022/04/11 08:27:15;;;;;;;;;6.00;5.00;;;;;13.84;40.88;100905.59;5064185;28;45420;-71
2022/04/11 08:29:41;;;;;;;;;5.67;5.00;;;;;14.10;41.69;100885.53;5081891;27;48171;-71
2022/04/11 08:32:06;;;;;;;;;8.00;6.67;;;;;14.40;40.18;100895.84;5072290;27;45393;-71
2022/04/11 08:34:32;;;;;;;;;5.00;5.00;;;;;14.61;39.88;100901.66;5080113;28;45377;-71
2022/04/11 08:36:57;;;;;;;;;6.00;6.00;;;;;14.81;38.93;100899.44;5071280;27;45554;-71
2022/04/11 08:39:22;;;;;;;;;5.67;5.67;;;;;14.98;38.69;100894.78;5077166;28;45414;-72
2022/04/11 08:41:48;;;;;;;;;5.00;5.00;;;;;15.30;38.09;100888.41;5080969;28;45567;-71
2022/04/11 08:44:16;;;;;;;;;10.33;9.00;;;;;15.45;38.18;100882.03;5069430;28;45432;-71
2022/04/11 08:46:41;;;;;;;;;9.67;9.67;;;;;15.61;36.79;100870.19;5065363;28;45365;-71
2022/04/11 08:49:07;;;;;;;;;6.00;6.00;;;;;15.85;36.24;100882.91;5080501;28;45408;-71
2022/04/11 08:51:34;;;;;;;;;6.00;4.67;;;;;15.86;36.44;100874.50;5065145;28;45215;-72
2022/04/11 08:54:04;;;;;;;;;5.00;5.00;;;;;15.98;37.02;100866.75;5073653;28;45413;-71
2022/04/11 08:56:30;;;;;;;;;5.33;5.00;;;;;16.42;37.13;100857.88;5070878;28;45256;-71
2022/04/11 08:58:56;;;;;;;;;5.33;5.33;;;;;16.67;36.31;100851.16;5072762;28;46264;-71
2022/04/11 09:01:22;;;;;;;;;6.33;5.33;;;;;16.87;35.66;100840.53;5068391;28;45234;-70
2022/04/11 09:03:48;;;;;;;;;4.67;4.67;;;;;16.99;35.21;100837.13;5078039;28;45408;-71
2022/04/11 09:06:15;;;;;;;;;6.33;6.33;;;;;17.10;34.40;100841.28;5070944;28;46043;-71
2022/04/11 09:08:48;;;;;;;;;4.33;4.33;;;;;17.25;35.12;100844.03;5069794;28;45269;-72
2022/04/11 09:11:26;;;;;;;;;8.00;5.00;;;;;17.48;35.11;100836.53;5066972;28;45255;-71
2022/04/11 09:13:52;;;;;;;;;6.00;4.00;;;;;17.80;33.95;100829.81;5076015;28;45346;-71
2022/04/11 09:16:18;;;;;;;;;5.33;5.33;;;;;17.77;33.26;100836.53;5068426;28;45314;-72
2022/04/11 09:18:53;;;;;;;;;6.67;5.00;;;;;18.06;33.73;100838.34;5072042;28;47838;-73
2022/04/11 09:21:20;;;;;;;;;4.67;4.67;;;;;18.35;33.66;100837.38;5066853;28;45460;-72
2022/04/11 09:23:47;;;;;;;;;4.33;4.33;;;;;18.60;33.22;100849.72;5077475;28;45287;-71
2022/04/11 09:26:22;;;;;;;;;5.33;4.67;;;;;18.61;32.36;100836.81;5066742;28;45301;-71
2022/04/11 09:29:04;;;;;;;;;4.33;4.33;;;;;18.92;33.24;100828.16;5078794;27;45941;-71
2022/04/11 09:31:32;;;;;;;;;6.00;6.00;;;;;19.11;31.94;100832.94;5076021;28;45752;-71
2022/04/11 09:33:59;;;;;;;;;4.33;4.33;;;;;19.23;32.18;100825.81;5070871;28;45231;-70
2022/04/11 09:36:48;;;;;;;;;7.00;6.00;;;;;19.51;31.58;100802.88;5064240;28;45418;-71
2022/04/11 09:39:15;;;;;;;;;5.67;5.00;;;;;19.66;31.13;100801.66;5075162;28;46503;-71
2022/04/11 09:41:46;;;;;;;;;5.00;5.00;;;;;19.76;30.95;100804.91;5072249;28;45342;-71
2022/04/11 09:44:28;;;;;;;;;5.33;5.00;;;;;19.81;31.61;100796.00;5075741;28;45495;-72
2022/04/11 09:46:57;;;;;;;;;5.00;5.00;;;;;19.77;30.39;100781.78;5069679;28;45353;-71
2022/04/11 09:49:22;;;;;;;;;4.00;4.00;;;;;19.95;30.40;100797.72;5076177;28;45438;-72
2022/04/11 09:52:08;;;;;;;;;6.00;6.00;;;;;20.17;31.10;100798.41;5069283;28;45350;-70
2022/04/11 09:54:35;;;;;;;;;7.00;6.00;;;;;20.13;29.81;100786.09;5071851;27;45417;-71
2022/04/11 09:57:03;;;;;;;;;6.00;6.00;;;;;20.07;30.40;100785.06;5064208;28;45278;-71
2022/04/11 09:59:28;;;;;;;;;5.00;5.00;;;;;19.90;29.82;100772.69;5083169;28;46208;-71
2022/04/11 10:01:56;;;;;;;;;4.67;4.67;;;;;20.08;31.24;100786.75;5065390;28;45460;-71
2022/04/11 10:04:22;;;;;;;;;4.33;4.33;;;;;20.21;28.55;100775.72;5079176;28;45441;-71
2022/04/11 10:06:48;;;;;;;;;5.00;5.00;;;;;20.27;30.69;100790.59;5065232;27;45399;-71
2022/04/11 10:09:14;;;;;;;;;4.00;3.00;;;;;20.31;29.79;100791.84;5067890;28;45872;-72
2022/04/11 10:11:41;;;;;;;;;2.00;2.00;;;;;20.58;29.77;100777.06;5082433;28;45358;-71
2022/04/11 10:14:10;;;;;;;;;4.33;4.00;;;;;20.69;28.06;100777.44;5073211;28;45311;-72
2022/04/11 10:16:42;;;;;;;;;5.00;4.00;;;;;21.02;30.17;100774.66;5099613;27;45536;-72
2022/04/11 10:19:08;;;;;;;;;4.00;4.00;;;;;21.41;28.67;100766.25;5083445;28;45238;-72
2022/04/11 10:21:39;;;;;;;;;5.00;2.33;;;;;21.54;28.73;100771.75;5078847;28;45426;-72
2022/04/11 10:24:17;;;;;;;;;3.67;3.67;;;;;21.33;26.56;100774.81;5078960;28;45420;-72
2022/04/11 10:26:48;;;;;;;;;2.67;2.67;;;;;21.05;26.04;100775.06;5076889;28;45629;-70
2022/04/11 10:29:36;;;;;;;;;3.00;2.00;;;;;21.07;27.30;100774.84;5080783;27;46616;-70
2022/04/11 10:32:25;;;;;;;;;4.00;3.00;;;;;21.45;27.28;100772.22;5063013;28;45326;-70
2022/04/11 10:35:03;;;;;;;;;2.67;2.67;;;;;21.47;26.65;100764.56;5075402;28;45512;-71
2022/04/11 10:37:41;;;;;;;;;3.00;3.00;;;;;21.57;25.67;100749.19;5066366;27;45596;-71
2022/04/11 10:40:15;;;;;;;;;2.33;2.33;;;;;21.74;26.07;100752.28;5063668;28;47340;-72
2022/04/11 10:42:59;;;;;;;;;2.67;2.67;;;;;21.59;26.26;100752.56;5063934;28;45388;-71
2022/04/11 10:45:34;;;;;;;;;3.33;3.33;;;;;21.47;26.34;100743.28;5065696;28;45408;-71
2022/04/11 10:48:01;;;;;;;;;5.33;3.00;;;;;21.36;26.38;100739.28;5065499;28;45408;-71
2022/04/11 10:50:35;;;;;;;;;4.33;3.00;;;;;21.39;26.93;100729.72;5073523;28;45523;-72
2022/04/11 10:53:13;;;;;;;;;4.00;3.00;;;;;21.51;26.09;100729.88;5072299;28;45503;-71
2022/04/11 10:55:57;;;;;;;;;5.00;3.67;;;;;21.58;26.26;100723.22;5066626;28;45796;-71
2022/04/11 10:58:40;;;;;;;;;2.00;2.00;;;;;21.62;26.49;100720.88;5073936;27;45354;-72
2022/04/11 11:01:06;;;;;;;;;2.00;2.00;;;;;21.71;26.27;100730.59;5071734;28;46202;-71
2022/04/11 11:03:31;;;;;;;;;2.00;2.00;;;;;21.97;26.54;100727.72;5067110;28;45274;-70
2022/04/11 11:06:14;;;;;;;;;3.00;3.00;;;;;21.72;25.99;100716.56;5070026;28;45650;-70
2022/04/11 11:08:40;;;;;;;;;3.33;3.33;;;;;21.79;25.63;100704.59;5081002;28;45824;-71
2022/04/11 11:11:25;;;;;;;;;3.00;3.00;;;;;21.89;25.57;100696.66;5068278;28;45440;-71
2022/04/11 11:13:52;;;;;;;;;1.67;1.67;;;;;22.18;25.32;100696.06;5066335;28;45366;-71
2022/04/11 11:16:18;;;;;;;;;4.33;3.00;;;;;22.49;25.35;100693.22;5067832;27;45214;-71
2022/04/11 11:18:46;;;;;;;;;8.00;7.67;;;;;22.56;25.51;100695.06;5080399;28;45637;-71
2022/04/11 11:21:19;;;;;;;;;5.33;3.67;;;;;22.33;24.95;100701.25;5067537;27;47314;-71
2022/04/11 11:24:08;;;;;;;;;3.67;3.67;;;;;22.24;24.81;100700.69;5079500;28;45289;-71
2022/04/11 11:26:54;;;;;;;;;3.00;3.00;;;;;22.25;25.15;100702.38;5072757;28;45494;-71
2022/04/11 11:29:32;;;;;;;;;4.33;2.33;;;;;22.38;25.02;100696.72;5076440;27;45668;-72